Time;durP1;ratioP1;P1;durP2;ratioP2;P2;SDS_P1;SDS_P2;PMS_P1;PMS_P2;Temp;Humidity;BMP_temperature;BMP_pressure;BME280_temperature;BME280_humidity;BME280_pressure;Samples;Min_cycle;Max_cycle;Signal;HPM_P1;HPM_P2
2023/01/11 00:01:22;;;;;;;;;;;15.80;66.70;;;;;;10374909;28;94492;-60
2023/01/11 00:06:24;;;;;;;;;;;15.80;66.70;;;;;;10375860;28;93467;-60
2023/01/11 00:11:26;;;;;;;;;;;15.80;66.90;;;;;;10375145;28;94435;-61
2023/01/11 00:16:28;;;;;;;;;;;15.80;66.90;;;;;;10357509;28;94420;-60
2023/01/11 00:21:29;;;;;;;;;;;15.80;66.90;;;;;;10372691;28;97155;-60
2023/01/11 00:26:31;;;;;;;;;;;15.70;66.80;;;;;;10356435;28;94662;-60
2023/01/11 00:31:33;;;;;;;;;;;15.70;66.80;;;;;;10372552;28;94446;-60
2023/01/11 00:36:34;;;;;;;;;;;15.70;66.90;;;;;;10355774;28;93516;-60
2023/01/11 00:52:17;;;;;;;;;;;15.70;67.10;;;;;;10373497;28;94451;-60
2023/01/11 00:57:19;;;;;;;;;;;15.60;67.10;;;;;;10354688;28;93573;-60
2023/01/11 01:02:21;;;;;;;;;;;15.60;67.20;;;;;;10372998;28;93407;-60
2023/01/11 01:07:23;;;;;;;;;;;15.60;67.20;;;;;;10372161;28;93516;-60
2023/01/11 01:17:45;;;;;;;;;;;15.60;67.30;;;;;;10372855;28;94531;-60
2023/01/11 01:22:47;;;;;;;;;;;15.60;67.40;;;;;;10353821;28;93465;-60
2023/01/11 01:27:49;;;;;;;;;;;15.60;67.40;;;;;;10372440;28;94059;-60
2023/01/11 01:32:51;;;;;;;;;;;15.60;67.50;;;;;;10372266;28;93010;-61
2023/01/11 01:37:52;;;;;;;;;;;15.60;67.50;;;;;;10353334;28;93464;-60
2023/01/11 01:42:54;;;;;;;;;;;15.60;67.60;;;;;;10371192;28;94540;-60
2023/01/11 01:47:58;;;;;;;;;;;15.50;67.60;;;;;;10371744;28;94093;-61
2023/01/11 01:53:20;;;;;;;;;;;15.60;67.70;;;;;;10370869;28;93612;-60
2023/01/11 01:58:25;;;;;;;;;;;15.50;67.70;;;;;;10353070;28;94496;-61
2023/01/11 02:03:27;;;;;;;;;;;15.50;67.70;;;;;;10749824;22;97061;-71
2023/01/11 02:08:33;;;;;;;;;;;15.50;67.80;;;;;;10227567;28;94542;-71
2023/01/11 02:13:44;;;;;;;;;;;15.50;67.80;;;;;;10248028;28;93409;-71
2023/01/11 02:18:46;;;;;;;;;;;15.50;67.80;;;;;;10230350;28;93988;-71
2023/01/11 02:24:01;;;;;;;;;;;15.50;67.80;;;;;;10247026;28;93345;-71
2023/01/11 02:29:12;;;;;;;;;;;15.50;67.90;;;;;;10230394;28;96287;-70
2023/01/11 02:34:26;;;;;;;;;;;15.50;68.00;;;;;;10247093;28;94537;-71
2023/01/11 02:39:37;;;;;;;;;;;15.50;68.00;;;;;;10247387;28;94213;-71
2023/01/11 02:45:01;;;;;;;;;;;15.50;68.10;;;;;;10246629;28;93384;-71
2023/01/11 02:50:18;;;;;;;;;;;15.50;68.00;;;;;;10245285;28;94201;-71
2023/01/11 02:55:24;;;;;;;;;;;15.50;68.00;;;;;;10251828;28;99858;-71
2023/01/11 03:00:26;;;;;;;;;;;15.50;68.00;;;;;;10236557;28;94544;-70
2023/01/11 03:05:28;;;;;;;;;;;15.50;68.10;;;;;;10234717;28;93384;-72
2023/01/11 03:10:36;;;;;;;;;;;15.50;68.50;;;;;;10234597;28;94610;-71
2023/01/11 03:15:55;;;;;;;;;;;15.50;68.20;;;;;;10253618;28;95295;-71
2023/01/11 03:21:15;;;;;;;;;;;15.50;68.20;;;;;;10254109;28;94574;-71
2023/01/11 03:26:26;;;;;;;;;;;15.50;68.20;;;;;;10236522;28;94660;-71
2023/01/11 03:31:47;;;;;;;;;;;15.40;68.20;;;;;;10253432;28;92543;-71
2023/01/11 03:36:56;;;;;;;;;;;15.50;68.20;;;;;;10253769;28;93325;-72
2023/01/11 03:42:00;;;;;;;;;;;15.40;68.20;;;;;;10252511;28;94515;-72
2023/01/11 03:47:05;;;;;;;;;;;15.40;68.20;;;;;;10250313;28;95734;-71
2023/01/11 03:52:08;;;;;;;;;;;15.40;68.20;;;;;;10253080;28;95880;-71
2023/01/11 03:57:43;;;;;;;;;;;15.40;68.20;;;;;;10234135;28;94062;-71
2023/01/11 04:02:45;;;;;;;;;;;15.40;68.20;;;;;;10201212;28;94461;-72
2023/01/11 04:07:47;;;;;;;;;;;15.40;68.20;;;;;;10233831;28;94672;-71
2023/01/11 04:12:49;;;;;;;;;;;15.40;68.20;;;;;;10233987;28;95044;-73
2023/01/11 04:17:51;;;;;;;;;;;15.40;68.20;;;;;;10234025;28;95021;-71
2023/01/11 04:22:53;;;;;;;;;;;15.40;68.20;;;;;;10251818;28;94244;-72
2023/01/11 04:27:54;;;;;;;;;;;15.40;68.20;;;;;;10233751;28;94620;-70
2023/01/11 04:32:59;;;;;;;;;;;15.40;68.40;;;;;;10252189;28;94526;-70
2023/01/11 04:38:01;;;;;;;;;;;15.30;68.20;;;;;;10248403;28;96692;-70
2023/01/11 04:43:02;;;;;;;;;;;15.40;68.30;;;;;;10250571;28;94571;-71
2023/01/11 06:05:33;;;;;;;;;;;15.80;67.90;;;;;;10227468;28;93856;-71
2023/01/11 06:10:35;;;;;;;;;;;16.10;67.20;;;;;;10247396;28;93400;-71
2023/01/11 06:15:37;;;;;;;;;;;16.30;66.90;;;;;;10247620;28;94889;-71
2023/01/11 06:20:41;;;;;;;;;;;16.40;66.50;;;;;;10230674;28;94246;-72
2023/01/11 06:25:44;;;;;;;;;;;16.50;66.30;;;;;;10230093;28;94388;-72
2023/01/11 06:30:52;;;;;;;;;;;16.40;66.10;;;;;;10231008;28;93939;-71
2023/01/11 06:35:55;;;;;;;;;;;16.50;66.10;;;;;;10246724;28;97391;-72
2023/01/11 06:40:59;;;;;;;;;;;16.40;66.20;;;;;;10248001;28;94949;-72
2023/01/11 06:46:01;;;;;;;;;;;16.40;66.30;;;;;;10230341;28;94733;-72
2023/01/11 06:51:05;;;;;;;;;;;16.30;66.30;;;;;;10247076;28;94785;-73
2023/01/11 06:56:09;;;;;;;;;;;16.30;66.50;;;;;;10247258;28;93131;-72
2023/01/11 07:01:11;;;;;;;;;;;16.20;66.60;;;;;;10248144;28;94704;-72
2023/01/11 07:06:13;;;;;;;;;;;16.20;66.80;;;;;;10229252;28;93329;-73
2023/01/11 07:11:14;;;;;;;;;;;16.10;67.60;;;;;;10249148;28;92662;-70
2023/01/11 07:16:16;;;;;;;;;;;16.10;69.10;;;;;;10234855;28;92924;-65
2023/01/11 07:21:18;;;;;;;;;;;16.10;71.90;;;;;;10241900;28;94954;-71
2023/01/11 07:26:20;;;;;;;;;;;16.20;74.10;;;;;;10282784;28;96013;-70
2023/01/11 07:31:22;;;;;;;;;;;16.20;74.10;;;;;;10269199;28;93420;-70
2023/01/11 07:36:24;;;;;;;;;;;16.20;72.70;;;;;;10244429;28;92744;-70
2023/01/11 07:46:45;;;;;;;;;;;16.20;71.20;;;;;;10291873;28;93811;-70
2023/01/11 07:51:47;;;;;;;;;;;16.10;70.90;;;;;;10291426;28;93928;-69
2023/01/11 07:56:49;;;;;;;;;;;16.10;70.60;;;;;;10291083;28;93598;-69
2023/01/11 08:01:51;;;;;;;;;;;16.10;70.50;;;;;;10292609;28;93796;-69
2023/01/11 08:06:53;;;;;;;;;;;16.00;71.50;;;;;;10291195;28;94438;-69
2023/01/11 08:17:15;;;;;;;;;;;16.00;70.70;;;;;;10289166;28;96806;-69
2023/01/11 08:22:17;;;;;;;;;;;16.00;70.70;;;;;;10272525;28;94381;-68
2023/01/11 08:27:18;;;;;;;;;;;15.90;71.70;;;;;;10265039;28;94425;-69
2023/01/11 08:32:20;;;;;;;;;;;15.90;70.60;;;;;;10249864;28;93276;-69
2023/01/11 08:37:22;;;;;;;;;;;15.90;70.60;;;;;;10251906;28;93463;-68
2023/01/11 08:42:24;;;;;;;;;;;15.90;70.60;;;;;;10259411;28;93419;-69
2023/01/11 08:47:26;;;;;;;;;;;15.80;70.50;;;;;;10291606;28;94442;-70
2023/01/11 08:52:28;;;;;;;;;;;15.80;70.40;;;;;;10290982;28;92635;-69
2023/01/11 08:57:30;;;;;;;;;;;15.80;70.20;;;;;;10289990;28;93497;-70
2023/01/11 09:02:32;;;;;;;;;;;15.80;70.50;;;;;;10290518;28;93641;-71
2023/01/11 09:07:33;;;;;;;;;;;15.80;70.10;;;;;;10289443;28;96257;-71
2023/01/11 09:12:35;;;;;;;;;;;15.80;69.90;;;;;;10290934;28;93364;-71
2023/01/11 09:17:37;;;;;;;;;;;15.80;69.70;;;;;;10261540;28;93970;-71
2023/01/11 09:22:38;;;;;;;;;;;15.70;69.50;;;;;;10268474;28;93618;-71
2023/01/11 09:27:44;;;;;;;;;;;15.70;69.30;;;;;;10254307;28;93161;-70
2023/01/11 09:32:46;;;;;;;;;;;15.70;69.20;;;;;;10231074;28;93673;-71
2023/01/11 09:37:49;;;;;;;;;;;15.70;69.10;;;;;;10247617;28;93272;-71
2023/01/11 09:42:53;;;;;;;;;;;15.70;69.00;;;;;;10233017;28;93826;-70
2023/01/11 09:48:03;;;;;;;;;;;15.70;68.90;;;;;;10249291;28;94267;-70
2023/01/11 09:53:07;;;;;;;;;;;15.70;68.80;;;;;;10247689;28;93829;-71
2023/01/11 09:58:17;;;;;;;;;;;15.70;68.70;;;;;;10245204;28;96893;-70
2023/01/11 10:03:44;;;;;;;;;;;15.70;68.60;;;;;;10245840;28;93423;-69
2023/01/11 10:08:54;;;;;;;;;;;15.70;68.60;;;;;;10246579;28;93459;-71
2023/01/11 10:14:24;;;;;;;;;;;15.70;68.50;;;;;;10255827;28;95602;-72
2023/01/11 10:19:52;;;;;;;;;;;15.60;68.40;;;;;;10269905;28;95158;-69
2023/01/11 10:24:57;;;;;;;;;;;15.60;68.20;;;;;;10272751;28;94485;-69
2023/01/11 10:30:32;;;;;;;;;;;15.70;68.10;;;;;;10288265;28;93245;-72
2023/01/11 10:36:09;;;;;;;;;;;15.60;68.10;;;;;;10288131;28;92943;-69
2023/01/11 10:41:32;;;;;;;;;;;15.60;68.10;;;;;;10268967;28;93647;-69
2023/01/11 10:46:39;;;;;;;;;;;15.70;68.60;;;;;;10287426;28;94497;-69
2023/01/11 10:51:44;;;;;;;;;;;15.60;68.00;;;;;;10283697;28;96078;-68
2023/01/11 10:57:07;;;;;;;;;;;15.60;67.90;;;;;;10286115;28;93477;-70
2023/01/11 11:02:29;;;;;;;;;;;15.60;68.20;;;;;;10285988;28;94281;-68
2023/01/11 11:07:39;;;;;;;;;;;15.60;68.00;;;;;;10269159;28;93666;-69
2023/01/11 11:12:47;;;;;;;;;;;15.60;68.00;;;;;;10269224;28;94126;-69
2023/01/11 11:17:50;;;;;;;;;;;15.60;68.10;;;;;;10273251;28;93911;-69
2023/01/11 11:22:52;;;;;;;;;;;15.60;68.10;;;;;;10264322;28;92730;-71
2023/01/11 11:28:00;;;;;;;;;;;15.60;68.10;;;;;;10235780;28;92545;-69
2023/01/11 11:33:25;;;;;;;;;;;15.60;68.20;;;;;;10234139;28;94751;-69
2023/01/11 11:38:31;;;;;;;;;;;15.60;68.20;;;;;;10228733;28;94337;-69
2023/01/11 11:43:36;;;;;;;;;;;15.60;68.90;;;;;;10283150;28;96895;-65
2023/01/11 11:48:38;;;;;;;;;;;15.60;68.80;;;;;;10275235;28;94600;-71
2023/01/11 11:53:42;;;;;;;;;;;15.70;69.60;;;;;;10292297;28;93922;-69
2023/01/11 11:58:44;;;;;;;;;;;15.80;69.00;;;;;;10270044;28;93330;-69
2023/01/11 12:03:46;;;;;;;;;;;15.80;68.50;;;;;;10290534;28;94528;-68
2023/01/11 12:08:48;;;;;;;;;;;15.80;68.40;;;;;;10291042;28;93582;-68
2023/01/11 12:13:57;;;;;;;;;;;15.80;68.30;;;;;;10287373;28;94587;-67
2023/01/11 12:18:59;;;;;;;;;;;15.80;68.80;;;;;;10280276;28;92069;-69
2023/01/11 12:24:07;;;;;;;;;;;15.90;69.30;;;;;;10250815;28;93622;-70
2023/01/11 12:29:34;;;;;;;;;;;15.90;69.00;;;;;;10255031;28;93804;-70
2023/01/11 12:34:54;;;;;;;;;;;15.90;68.90;;;;;;10283491;28;96419;-71
2023/01/11 12:40:31;;;;;;;;;;;15.90;68.80;;;;;;10291853;28;93513;-71
2023/01/11 12:45:38;;;;;;;;;;;15.80;68.80;;;;;;10162971;28;93279;-70
2023/01/11 12:50:59;;;;;;;;;;;15.80;68.80;;;;;;10247448;28;94787;-70
2023/01/11 12:56:16;;;;;;;;;;;15.80;68.70;;;;;;10230947;28;94435;-70
2023/01/11 13:01:47;;;;;;;;;;;15.70;68.70;;;;;;10233172;28;93641;-71
2023/01/11 13:07:08;;;;;;;;;;;15.70;68.60;;;;;;10156629;28;93772;-70
2023/01/11 13:12:22;;;;;;;;;;;15.70;68.50;;;;;;10167713;28;92797;-71
2023/01/11 13:17:24;;;;;;;;;;;15.60;68.50;;;;;;10167784;28;94663;-70
2023/01/11 13:22:31;;;;;;;;;;;15.60;68.40;;;;;;10175524;28;94555;-71
2023/01/11 13:27:33;;;;;;;;;;;15.60;68.40;;;;;;10206282;28;96970;-69
2023/01/11 13:32:36;;;;;;;;;;;15.60;68.30;;;;;;10208135;28;94537;-70
2023/01/11 13:37:55;;;;;;;;;;;15.60;68.30;;;;;;10206334;28;93597;-71
2023/01/11 13:43:02;;;;;;;;;;;15.60;68.20;;;;;;10206119;28;94443;-69
2023/01/11 13:48:12;;;;;;;;;;;15.60;68.60;;;;;;10207053;28;93622;-70
2023/01/11 13:53:14;;;;;;;;;;;15.60;68.10;;;;;;10207768;28;94617;-70
2023/01/11 13:58:24;;;;;;;;;;;15.60;68.10;;;;;;10207376;28;94981;-70
2023/01/11 14:03:28;;;;;;;;;;;15.60;68.10;;;;;;10221015;28;92571;-69
2023/01/11 14:09:02;;;;;;;;;;;15.60;68.40;;;;;;10272211;28;95226;-74
2023/01/11 14:14:12;;;;;;;;;;;15.60;68.20;;;;;;10253533;28;93860;-72
2023/01/11 14:19:23;;;;;;;;;;;15.60;68.00;;;;;;10284879;28;96851;-71
2023/01/11 14:24:27;;;;;;;;;;;15.60;68.00;;;;;;10266229;28;93885;-71
2023/01/11 14:29:31;;;;;;;;;;;15.60;68.00;;;;;;10245413;28;93494;-71
2023/01/11 14:34:50;;;;;;;;;;;15.50;67.90;;;;;;10228522;28;94228;-73
2023/01/11 14:39:51;;;;;;;;;;;15.50;67.90;;;;;;10265094;28;94503;-72
2023/01/11 14:45:02;;;;;;;;;;;15.50;67.80;;;;;;10284439;28;92615;-69
2023/01/11 14:50:04;;;;;;;;;;;15.50;67.80;;;;;;10291801;28;92886;-70
2023/01/11 14:55:13;;;;;;;;;;;15.50;67.80;;;;;;10295291;28;93101;-70
2023/01/11 15:00:18;;;;;;;;;;;15.50;67.80;;;;;;10294318;28;94444;-70
2023/01/11 15:05:25;;;;;;;;;;;15.50;67.80;;;;;;10294002;28;94405;-70
2023/01/11 15:10:27;;;;;;;;;;;15.50;67.80;;;;;;10291423;28;96840;-70
2023/01/11 15:18:16;;;;;;;;;;;15.50;67.70;;;;;;10292294;28;93909;-70
2023/01/11 15:20:55;;;;;;;;;;;15.40;67.70;;;;;;10266229;28;94608;-70
2023/01/11 15:26:02;;;;;;;;;;;15.40;67.70;;;;;;10252367;28;94309;-69
2023/01/11 15:31:04;;;;;;;;;;;15.40;67.80;;;;;;10252266;28;93325;-67
2023/01/11 15:36:06;;;;;;;;;;;15.50;67.60;;;;;;10235209;28;93196;-68
2023/01/11 15:46:53;;;;;;;;;;;15.50;67.70;;;;;;10295070;28;92860;-68
2023/01/11 15:52:00;;;;;;;;;;;15.50;67.80;;;;;;10274741;28;94127;-68
2023/01/11 15:57:02;;;;;;;;;;;15.60;67.30;;;;;;10248838;28;93606;-68
2023/01/11 16:02:13;;;;;;;;;;;15.60;67.20;;;;;;10230408;28;97000;-68
2023/01/11 16:07:15;;;;;;;;;;;15.60;67.40;;;;;;10250220;28;94583;-70
2023/01/11 16:12:35;;;;;;;;;;;15.70;67.00;;;;;;10290036;28;93045;-68
2023/01/11 16:17:40;;;;;;;;;;;16.00;68.80;;;;;;10292477;28;92986;-68
2023/01/11 16:22:46;;;;;;;;;;;16.20;67.60;;;;;;10292592;28;94426;-70
2023/01/11 16:27:52;;;;;;;;;;;16.50;66.90;;;;;;10269939;28;92640;-69
2023/01/11 16:33:12;;;;;;;;;;;16.70;66.80;;;;;;10252175;28;94562;-69
2023/01/11 16:38:20;;;;;;;;;;;16.90;66.20;;;;;;10251754;28;93768;-68
2023/01/11 16:43:24;;;;;;;;;;;17.10;66.70;;;;;;10252034;28;93440;-71
2023/01/11 16:48:28;;;;;;;;;;;17.20;65.90;;;;;;10293642;28;93049;-66
2023/01/11 16:53:31;;;;;;;;;;;17.50;66.50;;;;;;10288535;28;96895;-68
2023/01/11 16:58:34;;;;;;;;;;;17.50;67.10;;;;;;10288716;28;92761;-65
2023/01/11 17:03:37;;;;;;;;;;;17.60;67.90;;;;;;10289676;28;94468;-66
2023/01/11 17:08:40;;;;;;;;;;;17.70;69.00;;;;;;10237320;28;94486;-68
2023/01/11 17:14:00;;;;;;;;;;;17.80;68.60;;;;;;10244013;28;93306;-68
2023/01/11 17:19:14;;;;;;;;;;;18.00;67.70;;;;;;10251572;28;93606;-69
2023/01/11 17:24:16;;;;;;;;;;;18.20;66.70;;;;;;10285366;28;94571;-69
2023/01/11 17:29:27;;;;;;;;;;;18.30;65.80;;;;;;10284343;28;92010;-71
2023/01/11 17:34:33;;;;;;;;;;;18.30;65.30;;;;;;10285680;28;94600;-69
2023/01/11 17:39:36;;;;;;;;;;;18.20;65.10;;;;;;10287319;28;94541;-70
2023/01/11 17:50:00;;;;;;;;;;;18.20;65.10;;;;;;10288664;28;93426;-71
2023/01/11 17:55:02;;;;;;;;;;;18.30;64.80;;;;;;10253511;28;93420;-69
2023/01/11 18:00:21;;;;;;;;;;;18.30;65.80;;;;;;10247454;28;93514;-71
2023/01/11 18:05:25;;;;;;;;;;;18.20;67.10;;;;;;10245267;28;94961;-66
2023/01/11 18:10:28;;;;;;;;;;;18.30;68.60;;;;;;10247352;28;94716;-67
2023/01/11 18:15:31;;;;;;;;;;;18.30;68.30;;;;;;10245195;28;94468;-66
2023/01/11 18:20:37;;;;;;;;;;;18.20;68.10;;;;;;10246233;28;92660;-66
2023/01/11 18:25:39;;;;;;;;;;;18.20;68.20;;;;;;10245205;28;93502;-67
2023/01/11 18:30:44;;;;;;;;;;;18.20;68.20;;;;;;10227793;28;93442;-67
2023/01/11 18:35:47;;;;;;;;;;;18.20;68.70;;;;;;10260776;28;96754;-66
2023/01/11 18:40:49;;;;;;;;;;;18.20;68.60;;;;;;10252162;28;93514;-66
2023/01/11 18:45:51;;;;;;;;;;;18.10;68.70;;;;;;10246522;28;95279;-65
2023/01/11 18:50:54;;;;;;;;;;;18.10;69.00;;;;;;10246233;28;93424;-69
2023/01/11 18:55:55;;;;;;;;;;;18.00;68.80;;;;;;10245857;28;94563;-66
2023/01/11 19:00:59;;;;;;;;;;;18.00;68.70;;;;;;10245632;28;94137;-65
2023/01/11 19:06:00;;;;;;;;;;;18.10;68.80;;;;;;10245097;28;93996;-65
2023/01/11 19:11:02;;;;;;;;;;;18.10;68.90;;;;;;10245484;28;92638;-65
2023/01/11 19:16:04;;;;;;;;;;;18.00;68.70;;;;;;10245339;28;94412;-65
2023/01/11 19:21:08;;;;;;;;;;;18.00;68.70;;;;;;10245151;28;93793;-65
2023/01/11 19:26:09;;;;;;;;;;;18.00;69.10;;;;;;10243063;28;98972;-65
2023/01/11 19:31:11;;;;;;;;;;;18.00;69.20;;;;;;10244767;28;93281;-64
2023/01/11 19:36:13;;;;;;;;;;;18.00;70.70;;;;;;10248468;28;92547;-64
2023/01/11 19:41:15;;;;;;;;;;;18.00;69.70;;;;;;10251347;28;92565;-64
2023/01/11 19:46:17;;;;;;;;;;;17.90;69.50;;;;;;10252245;28;93252;-64
2023/01/11 19:51:31;;;;;;;;;;;17.90;69.50;;;;;;10250603;28;94300;-64
2023/01/11 19:56:33;;;;;;;;;;;17.80;69.70;;;;;;10233839;28;94453;-64
2023/01/11 20:01:35;;;;;;;;;;;17.70;69.70;;;;;;10251382;28;94100;-64
2023/01/11 20:06:38;;;;;;;;;;;17.60;69.80;;;;;;10249784;28;96341;-63
2023/01/11 20:11:40;;;;;;;;;;;17.60;69.90;;;;;;10233210;28;96256;-64
2023/01/11 20:16:41;;;;;;;;;;;17.50;69.90;;;;;;10247811;28;96838;-63
2023/01/11 20:21:43;;;;;;;;;;;17.50;69.90;;;;;;10232697;28;93730;-63
2023/01/11 20:26:45;;;;;;;;;;;17.40;69.90;;;;;;10249313;28;93525;-63
2023/01/11 20:31:48;;;;;;;;;;;17.30;70.00;;;;;;10230975;28;93637;-63
2023/01/11 20:36:50;;;;;;;;;;;17.30;70.00;;;;;;10249441;28;93945;-64
2023/01/11 20:41:52;;;;;;;;;;;17.30;70.10;;;;;;10249556;28;95196;-63
2023/01/11 20:46:55;;;;;;;;;;;17.20;70.20;;;;;;10250037;28;93238;-64
2023/01/11 20:51:56;;;;;;;;;;;17.20;70.30;;;;;;10251014;28;92754;-63
2023/01/11 20:57:02;;;;;;;;;;;17.10;70.20;;;;;;10249711;28;93330;-63
2023/01/11 21:02:06;;;;;;;;;;;17.10;70.20;;;;;;10249652;28;93357;-63
2023/01/11 21:07:08;;;;;;;;;;;17.10;70.30;;;;;;10246259;28;95912;-63
2023/01/11 21:12:10;;;;;;;;;;;17.10;70.30;;;;;;10248121;28;92575;-63
2023/01/11 21:17:11;;;;;;;;;;;17.00;70.10;;;;;;10248668;28;94487;-63
2023/01/11 21:22:13;;;;;;;;;;;17.00;70.20;;;;;;10248436;28;94210;-63
2023/01/11 21:27:15;;;;;;;;;;;17.00;70.10;;;;;;10247656;28;93235;-63
2023/01/11 21:32:17;;;;;;;;;;;17.00;70.10;;;;;;10248059;28;92823;-64
2023/01/11 21:37:22;;;;;;;;;;;16.90;70.00;;;;;;10248457;28;93456;-63
2023/01/11 21:42:24;;;;;;;;;;;16.90;70.00;;;;;;10247961;28;93809;-63
2023/01/11 21:47:25;;;;;;;;;;;16.90;69.80;;;;;;10247673;28;93291;-63
2023/01/11 21:52:27;;;;;;;;;;;16.90;69.60;;;;;;10247477;28;93469;-64
2023/01/11 21:57:31;;;;;;;;;;;16.80;69.50;;;;;;10243954;28;116353;-63
2023/01/11 22:02:33;;;;;;;;;;;16.80;69.60;;;;;;10247131;28;93228;-63
2023/01/11 22:07:37;;;;;;;;;;;16.70;70.30;;;;;;10230327;28;93664;-63
2023/01/11 22:12:39;;;;;;;;;;;16.70;69.40;;;;;;10246431;28;94414;-63
2023/01/11 22:17:40;;;;;;;;;;;16.70;69.20;;;;;;10246731;28;94501;-63
2023/01/11 22:22:42;;;;;;;;;;;16.60;69.20;;;;;;10245177;28;93451;-64
2023/01/11 22:27:44;;;;;;;;;;;16.60;69.10;;;;;;10262829;28;94586;-63
2023/01/11 22:32:46;;;;;;;;;;;16.60;69.20;;;;;;10245501;28;94027;-63
2023/01/11 22:37:48;;;;;;;;;;;16.60;69.20;;;;;;10246542;28;94394;-63
2023/01/11 22:42:50;;;;;;;;;;;16.50;69.10;;;;;;10245896;28;95195;-63
2023/01/11 22:47:52;;;;;;;;;;;16.50;69.00;;;;;;10242407;28;95786;-63
2023/01/11 22:52:53;;;;;;;;;;;16.50;69.10;;;;;;10227658;28;94444;-63
2023/01/11 22:57:55;;;;;;;;;;;16.50;69.10;;;;;;10245510;28;93122;-63
2023/01/11 23:02:57;;;;;;;;;;;16.50;69.10;;;;;;10245031;28;94304;-63
2023/01/11 23:07:59;;;;;;;;;;;16.50;69.10;;;;;;10246176;28;92468;-64
2023/01/11 23:18:21;;;;;;;;;;;16.40;68.90;;;;;;10251196;28;93426;-63
2023/01/11 23:23:25;;;;;;;;;;;16.40;69.00;;;;;;10252592;28;92836;-63
2023/01/11 23:28:29;;;;;;;;;;;16.40;68.90;;;;;;10251386;28;93412;-64
2023/01/11 23:33:31;;;;;;;;;;;16.40;69.00;;;;;;10251875;28;93980;-63
2023/01/11 23:38:33;;;;;;;;;;;16.30;68.80;;;;;;10248625;28;96739;-63
2023/01/11 23:43:35;;;;;;;;;;;16.30;68.70;;;;;;10250499;28;93131;-63
2023/01/11 23:48:37;;;;;;;;;;;16.30;68.70;;;;;;10251128;28;93516;-63
2023/01/11 23:53:39;;;;;;;;;;;16.30;68.70;;;;;;10250441;28;94620;-64
2023/01/11 23:58:41;;;;;;;;;;;16.30;68.60;;;;;;10234109;28;94351;-63
